Zoe, Kentucky
Current Conditions -  °F | °C
As of 2:53 AM on Thursday 29 Jan 2015 (Local Time) from KJKL Reporting Station
Clear Clear  
Wind Chill: 29°   Ceiling: Unl
Heat Index: 33°   Visibility: 10mi
Dew Point: 18°   Wind: 5mph
Humidity: 54%   Direction: 180°S
Pressure: 30.12"   Gusts: NA
Location:  37.68°N, 83.71°W
Report Text: KJKL 290753Z AUTO 18004KT 10SM CLR 01/M08 A3012 RMK AO2 SLP208 T00061078
Loading
Personal Weather Stations






























Interactive Weather Map New forecast layout! Learn more

10-Day Weather Forecast

Advertisements
Track Severe Weather on mobile